createdAt,value
2023-05-19T00:01:16.758Z,9.60
2023-05-19T00:03:52.727Z,9.60
2023-05-19T00:06:24.201Z,9.60
2023-05-19T00:08:56.592Z,9.50
2023-05-19T00:11:24.067Z,9.60
2023-05-19T00:13:51.563Z,9.70
2023-05-19T00:16:18.707Z,9.70
2023-05-19T00:18:47.521Z,9.70
2023-05-19T00:21:14.815Z,9.60
2023-05-19T00:23:42.188Z,9.60
2023-05-19T00:26:09.157Z,9.60
2023-05-19T00:28:36.086Z,9.60
2023-05-19T00:31:04.655Z,9.50
2023-05-19T00:33:33.781Z,9.40
2023-05-19T00:36:04.153Z,9.40
2023-05-19T00:38:32.072Z,9.40
2023-05-19T00:40:59.696Z,9.50
2023-05-19T00:43:27.063Z,9.40
2023-05-19T00:45:54.110Z,9.40
2023-05-19T00:48:21.813Z,9.40
2023-05-19T00:50:50.293Z,9.30
2023-05-19T00:53:17.757Z,9.30
2023-05-19T00:55:45.149Z,9.40
2023-05-19T00:58:12.862Z,9.40
2023-05-19T01:00:40.197Z,9.30
2023-05-19T01:03:13.859Z,9.30
2023-05-19T01:05:44.883Z,9.40
2023-05-19T01:08:11.912Z,9.30
2023-05-19T01:10:38.838Z,9.30
2023-05-19T01:13:06.702Z,9.30
2023-05-19T01:15:36.360Z,9.30
2023-05-19T01:18:11.852Z,9.40
2023-05-19T01:20:40.216Z,9.40
2023-05-19T01:23:21.617Z,9.40
2023-05-19T01:26:04.805Z,9.50
2023-05-19T01:28:51.058Z,9.40
2023-05-19T01:31:20.232Z,9.40
2023-05-19T01:33:48.806Z,9.60
2023-05-19T01:36:16.360Z,9.50
2023-05-19T01:38:43.556Z,9.40
2023-05-19T01:41:11.649Z,9.50
2023-05-19T01:43:38.686Z,9.40
2023-05-19T01:46:06.826Z,9.50
2023-05-19T01:48:34.140Z,9.40
2023-05-19T01:51:01.215Z,9.50
2023-05-19T01:53:28.204Z,9.60
2023-05-19T01:55:56.140Z,9.60
2023-05-19T01:58:31.625Z,9.60
2023-05-19T02:01:01.789Z,9.50
2023-05-19T02:03:41.163Z,9.40
2023-05-19T02:06:26.797Z,9.50
2023-05-19T02:09:15.584Z,9.40
2023-05-19T02:11:47.165Z,9.50
2023-05-19T02:14:17.992Z,9.50
2023-05-19T02:16:46.230Z,9.50
2023-05-19T02:19:26.768Z,9.40
2023-05-19T02:21:56.409Z,9.50
2023-05-19T02:24:23.300Z,9.50
2023-05-19T02:26:51.974Z,9.50
2023-05-19T02:29:19.289Z,9.50
2023-05-19T02:31:46.688Z,9.60
2023-05-19T02:34:13.725Z,9.70
2023-05-19T02:36:43.160Z,9.70
2023-05-19T02:39:11.062Z,9.70
2023-05-19T02:41:38.554Z,9.80
2023-05-19T02:44:05.849Z,9.70
2023-05-19T02:46:33.030Z,9.90
2023-05-19T02:49:00.804Z,9.90
2023-05-19T02:51:27.903Z,9.90
2023-05-19T02:53:54.934Z,10.00
2023-05-19T02:56:22.003Z,10.10
2023-05-19T02:58:49.003Z,10.00
2023-05-19T03:01:16.646Z,10.10
2023-05-19T03:03:43.867Z,10.10
2023-05-19T03:06:10.909Z,10.10
2023-05-19T03:08:38.820Z,10.00
2023-05-19T03:11:07.792Z,10.00
2023-05-19T03:13:35.029Z,10.00
2023-05-19T03:16:02.153Z,10.00
2023-05-19T03:18:29.129Z,9.90
2023-05-19T03:20:56.627Z,9.90
2023-05-19T03:23:23.756Z,9.80
2023-05-19T03:25:50.996Z,9.80
2023-05-19T03:28:18.440Z,9.80
2023-05-19T03:30:45.531Z,9.60
2023-05-19T03:33:17.562Z,9.60
2023-05-19T03:35:45.512Z,9.60
2023-05-19T03:38:13.192Z,9.50
2023-05-19T03:40:46.324Z,9.70
2023-05-19T03:43:13.468Z,9.60
2023-05-19T03:45:49.071Z,9.60
2023-05-19T03:48:36.403Z,9.50
2023-05-19T03:51:21.735Z,9.50
2023-05-19T03:53:52.078Z,9.30
2023-05-19T03:56:20.806Z,9.40
2023-05-19T03:58:49.797Z,9.30
2023-05-19T04:01:17.613Z,9.20
2023-05-19T04:03:44.584Z,9.30
2023-05-19T04:06:11.604Z,9.20
2023-05-19T04:08:39.336Z,9.30
2023-05-19T04:11:06.330Z,9.40
2023-05-19T04:13:34.009Z,9.40
2023-05-19T04:16:01.527Z,9.40
2023-05-19T04:18:29.173Z,9.40
2023-05-19T04:20:56.480Z,9.50
2023-05-19T04:23:23.445Z,9.50
2023-05-19T04:25:51.408Z,9.60
2023-05-19T04:28:18.430Z,9.60
2023-05-19T04:30:46.837Z,9.50
2023-05-19T04:33:13.982Z,9.70
2023-05-19T04:35:43.899Z,9.70
2023-05-19T04:38:12.319Z,9.70
2023-05-19T04:40:42.319Z,9.70
2023-05-19T04:43:09.580Z,10.00
2023-05-19T04:45:37.820Z,10.00
2023-05-19T04:48:05.820Z,10.00
2023-05-19T04:50:34.399Z,10.20
2023-05-19T04:53:01.880Z,10.40
2023-05-19T04:55:28.984Z,10.40
2023-05-19T04:57:56.301Z,10.40
2023-05-19T05:00:23.384Z,10.50
2023-05-19T05:02:58.491Z,10.50
2023-05-19T05:05:28.099Z,10.70
2023-05-19T05:07:55.506Z,10.80
2023-05-19T05:10:24.801Z,10.80
2023-05-19T05:12:52.042Z,10.80
2023-05-19T05:15:19.875Z,10.80
2023-05-19T05:17:49.357Z,10.80
2023-05-19T05:20:17.125Z,10.80
2023-05-19T05:22:44.500Z,10.90
2023-05-19T05:25:14.825Z,11.10
2023-05-19T05:27:42.364Z,11.30
2023-05-19T05:30:09.490Z,11.40
2023-05-19T05:32:37.517Z,11.40
2023-05-19T05:35:10.837Z,11.60
2023-05-19T05:37:38.965Z,11.70
2023-05-19T05:40:07.166Z,11.80
2023-05-19T05:42:35.558Z,11.70
2023-05-19T05:45:03.403Z,11.90
2023-05-19T05:47:32.005Z,12.10
2023-05-19T05:49:59.558Z,12.10
2023-05-19T05:52:29.809Z,12.40
2023-05-19T05:54:56.941Z,12.40
2023-05-19T05:57:24.134Z,12.70
2023-05-19T05:59:51.700Z,13.00
2023-05-19T06:02:18.761Z,13.20
2023-05-19T06:04:45.926Z,13.30
2023-05-19T06:07:12.858Z,13.50
2023-05-19T06:09:39.994Z,13.40
2023-05-19T06:12:09.086Z,13.30
2023-05-19T06:14:41.802Z,13.60
2023-05-19T06:17:22.444Z,13.60
2023-05-19T06:19:51.616Z,13.60
2023-05-19T06:22:18.943Z,14.00
2023-05-19T06:24:46.130Z,14.00
2023-05-19T06:27:13.025Z,14.20
2023-05-19T06:29:40.004Z,14.00
2023-05-19T06:32:08.575Z,14.10
2023-05-19T06:34:35.964Z,13.80
2023-05-19T06:37:03.950Z,13.60
2023-05-19T06:39:32.264Z,13.50
2023-05-19T06:41:59.752Z,13.50
2023-05-19T06:44:46.962Z,13.40
2023-05-19T06:47:16.463Z,13.90
2023-05-19T06:49:44.750Z,14.00
2023-05-19T06:52:12.227Z,13.90
2023-05-19T06:54:39.439Z,14.10
2023-05-19T06:57:07.410Z,14.10
2023-05-19T06:59:34.411Z,14.20
2023-05-19T07:02:02.585Z,14.40
2023-05-19T07:04:29.711Z,14.50
2023-05-19T07:06:57.346Z,14.60
2023-05-19T07:09:25.202Z,14.60
2023-05-19T07:11:52.154Z,14.50
2023-05-19T07:14:19.231Z,14.70
2023-05-19T07:16:46.773Z,14.80
2023-05-19T07:19:14.102Z,14.90
2023-05-19T07:21:42.589Z,14.80
2023-05-19T07:24:09.528Z,15.00
2023-05-19T07:26:36.497Z,15.00
2023-05-19T07:29:03.473Z,15.20
2023-05-19T07:31:30.487Z,15.20
2023-05-19T07:33:57.771Z,15.10
2023-05-19T07:36:24.764Z,15.20
2023-05-19T07:38:51.692Z,15.50
2023-05-19T07:41:18.598Z,15.30
2023-05-19T07:43:45.712Z,15.40
2023-05-19T07:46:13.038Z,15.50
2023-05-19T07:48:40.171Z,15.70
2023-05-19T07:51:10.173Z,15.80
2023-05-19T07:53:37.303Z,15.90
2023-05-19T07:56:04.348Z,16.00
2023-05-19T07:58:31.530Z,16.50
2023-05-19T08:00:59.117Z,16.70
2023-05-19T08:03:26.712Z,16.60
2023-05-19T08:05:53.840Z,16.80
2023-05-19T08:08:22.040Z,17.20
2023-05-19T08:10:49.001Z,17.10
2023-05-19T08:13:16.260Z,17.50
2023-05-19T08:15:43.261Z,17.60
2023-05-19T08:18:10.418Z,17.90
2023-05-19T08:20:37.710Z,17.80
2023-05-19T08:23:04.784Z,18.10
2023-05-19T08:25:31.685Z,18.00
2023-05-19T08:27:58.624Z,18.30
2023-05-19T08:30:25.606Z,18.40
2023-05-19T08:32:52.689Z,18.30
2023-05-19T08:35:19.767Z,18.10
2023-05-19T08:37:46.692Z,18.40
2023-05-19T08:40:16.745Z,18.70
2023-05-19T08:42:44.037Z,18.80
2023-05-19T08:45:11.132Z,18.80
2023-05-19T08:47:38.231Z,19.00
2023-05-19T08:50:07.940Z,18.80
2023-05-19T08:52:49.505Z,18.70
2023-05-19T08:55:26.076Z,18.50
2023-05-19T08:57:53.728Z,18.00
2023-05-19T09:00:21.028Z,18.00
2023-05-19T09:02:59.810Z,18.70
2023-05-19T09:05:33.555Z,19.10
2023-05-19T09:08:02.958Z,20.30
2023-05-19T09:10:29.953Z,20.40
2023-05-19T09:12:57.039Z,20.20
2023-05-19T09:15:26.982Z,19.40
2023-05-19T09:18:09.098Z,19.70
2023-05-19T09:20:46.231Z,19.00
2023-05-19T09:23:17.215Z,18.60
2023-05-19T09:25:47.553Z,18.80
2023-05-19T09:28:14.474Z,19.00
2023-05-19T09:30:41.378Z,19.10
2023-05-19T09:33:10.156Z,19.60
2023-05-19T09:35:37.303Z,20.00
2023-05-19T09:38:04.372Z,20.20
2023-05-19T09:40:32.228Z,20.30
2023-05-19T09:42:59.402Z,20.20
2023-05-19T09:45:27.269Z,20.40
2023-05-19T09:47:54.814Z,20.10
2023-05-19T09:50:22.720Z,19.90
2023-05-19T09:52:50.390Z,20.30
2023-05-19T09:55:18.706Z,20.80
2023-05-19T09:57:46.261Z,20.60
2023-05-19T10:00:19.683Z,20.90
2023-05-19T10:02:48.379Z,20.40
2023-05-19T10:05:17.636Z,20.60
2023-05-19T10:07:45.892Z,21.20
2023-05-19T10:10:14.139Z,20.70
2023-05-19T10:12:41.624Z,20.50
2023-05-19T10:15:12.951Z,20.40
2023-05-19T10:17:41.327Z,20.30
2023-05-19T10:20:09.269Z,20.60
2023-05-19T10:22:36.319Z,20.30
2023-05-19T10:25:03.524Z,20.30
2023-05-19T10:27:31.425Z,20.30
2023-05-19T10:30:00.872Z,19.80
2023-05-19T10:32:30.163Z,19.50
2023-05-19T10:35:08.897Z,19.10
2023-05-19T10:37:54.564Z,19.10
2023-05-19T10:40:27.792Z,19.50
2023-05-19T10:43:27.427Z,19.10
2023-05-19T10:45:55.285Z,18.40
2023-05-19T10:48:25.042Z,18.60
2023-05-19T10:50:56.622Z,18.50
2023-05-19T10:53:31.185Z,18.60
2023-05-19T10:56:02.715Z,18.60
2023-05-19T10:58:39.550Z,18.80
2023-05-19T11:01:12.814Z,18.70
2023-05-19T11:03:53.564Z,19.30
2023-05-19T11:06:21.986Z,19.50
2023-05-19T11:08:53.327Z,19.60
2023-05-19T11:11:21.214Z,19.70
2023-05-19T11:13:51.052Z,19.40
2023-05-19T11:16:28.626Z,19.20
2023-05-19T11:18:56.352Z,19.20
2023-05-19T11:21:23.358Z,19.10
2023-05-19T11:23:51.866Z,19.10
2023-05-19T11:26:38.921Z,19.20
2023-05-19T11:29:06.865Z,19.20
2023-05-19T11:31:36.376Z,19.20
2023-05-19T11:34:05.466Z,19.30
2023-05-19T11:36:33.185Z,19.00
2023-05-19T11:39:01.396Z,19.20
2023-05-19T11:41:30.648Z,19.20
2023-05-19T11:43:57.828Z,19.50
2023-05-19T11:46:25.166Z,19.10
2023-05-19T11:48:53.682Z,19.10
2023-05-19T11:51:21.528Z,19.30
2023-05-19T11:53:49.729Z,19.50
2023-05-19T11:56:16.596Z,19.20
2023-05-19T11:58:43.656Z,19.20
2023-05-19T12:01:11.228Z,19.30
2023-05-19T12:03:38.500Z,19.20
2023-05-19T12:06:06.860Z,19.10
2023-05-19T12:08:34.934Z,19.40
2023-05-19T12:11:01.916Z,19.20
2023-05-19T12:13:28.873Z,19.30
2023-05-19T12:15:59.399Z,18.70
2023-05-19T12:18:30.880Z,18.90
2023-05-19T12:20:57.877Z,19.10
2023-05-19T12:23:25.277Z,19.00
2023-05-19T12:25:52.945Z,18.90
2023-05-19T12:28:20.022Z,18.90
2023-05-19T12:30:47.911Z,18.60
2023-05-19T12:33:15.376Z,18.70
2023-05-19T12:35:42.577Z,18.90
2023-05-19T12:38:09.514Z,19.10
2023-05-19T12:40:37.761Z,18.90
2023-05-19T12:43:05.780Z,18.60
2023-05-19T12:45:36.872Z,18.60
2023-05-19T12:48:11.654Z,18.80
2023-05-19T12:50:38.818Z,18.80
2023-05-19T12:53:08.801Z,18.80
2023-05-19T12:55:44.988Z,19.00
2023-05-19T12:58:12.783Z,18.90
2023-05-19T13:00:40.807Z,18.70
2023-05-19T13:03:10.005Z,18.70
2023-05-19T13:05:38.384Z,18.60
2023-05-19T13:08:05.361Z,18.80
2023-05-19T13:10:33.588Z,18.70
2023-05-19T13:13:01.373Z,18.50
2023-05-19T13:15:31.861Z,18.40
2023-05-19T13:18:00.137Z,18.00
2023-05-19T13:20:28.629Z,17.80
2023-05-19T13:22:56.121Z,18.00
2023-05-19T13:25:23.109Z,17.90
2023-05-19T13:27:50.516Z,17.70
2023-05-19T13:30:18.135Z,17.50
2023-05-19T13:32:45.501Z,17.40
2023-05-19T13:35:12.958Z,17.40
2023-05-19T13:37:41.201Z,17.60
2023-05-19T13:40:08.722Z,17.50
2023-05-19T13:42:35.741Z,17.50
2023-05-19T13:45:03.123Z,17.30
2023-05-19T13:47:30.294Z,17.40
2023-05-19T13:49:58.798Z,17.30
2023-05-19T13:52:27.501Z,17.50
2023-05-19T13:54:56.741Z,17.50
2023-05-19T13:57:23.834Z,17.50
2023-05-19T14:00:01.808Z,17.70
2023-05-19T14:02:39.526Z,17.90
2023-05-19T14:05:07.513Z,18.00
2023-05-19T14:07:35.222Z,17.90
2023-05-19T14:10:03.035Z,17.90
2023-05-19T14:12:38.149Z,17.50
2023-05-19T14:15:14.624Z,17.80
2023-05-19T14:17:41.906Z,18.00
2023-05-19T14:20:09.765Z,18.40
2023-05-19T14:22:36.717Z,18.50
2023-05-19T14:25:03.825Z,18.90
2023-05-19T14:27:30.897Z,19.40
2023-05-19T14:29:58.038Z,19.50
2023-05-19T14:32:26.822Z,19.90
2023-05-19T14:34:55.688Z,19.80
2023-05-19T14:37:22.633Z,19.80
2023-05-19T14:39:49.833Z,19.90
2023-05-19T14:42:16.820Z,19.40
2023-05-19T14:44:44.059Z,19.00
2023-05-19T14:47:12.502Z,19.00
2023-05-19T14:49:39.586Z,18.70
2023-05-19T14:52:06.756Z,18.40
2023-05-19T14:54:34.100Z,18.60
2023-05-19T14:57:01.693Z,18.60
2023-05-19T14:59:29.747Z,18.60
2023-05-19T15:01:56.702Z,18.30
2023-05-19T15:04:23.713Z,18.40
2023-05-19T15:07:05.817Z,18.60
2023-05-19T15:09:36.547Z,18.50
2023-05-19T15:12:03.596Z,18.60
2023-05-19T15:14:31.291Z,18.40
2023-05-19T15:16:58.581Z,18.50
2023-05-19T15:19:26.175Z,18.50
2023-05-19T15:21:53.312Z,18.00
2023-05-19T15:24:20.458Z,18.00
2023-05-19T15:26:47.683Z,18.30
2023-05-19T15:29:14.635Z,18.10
2023-05-19T15:31:41.750Z,18.10
2023-05-19T15:34:09.362Z,18.10
2023-05-19T15:36:36.393Z,18.20
2023-05-19T15:39:03.933Z,18.20
2023-05-19T15:41:30.969Z,18.30
2023-05-19T15:44:00.214Z,18.50
2023-05-19T15:46:27.466Z,18.60
2023-05-19T15:48:54.662Z,18.80
2023-05-19T15:51:21.946Z,18.80
2023-05-19T15:53:49.129Z,18.80
2023-05-19T15:56:16.256Z,18.80
2023-05-19T15:58:43.540Z,18.80
2023-05-19T16:01:10.523Z,18.90
2023-05-19T16:03:37.596Z,19.00
2023-05-19T16:06:04.855Z,19.40
2023-05-19T16:08:31.900Z,19.30
2023-05-19T16:10:58.856Z,19.20
2023-05-19T16:13:25.961Z,19.30
2023-05-19T16:15:53.040Z,19.50
2023-05-19T16:18:20.069Z,19.60
2023-05-19T16:20:47.042Z,19.70
2023-05-19T16:23:14.043Z,19.50
2023-05-19T16:25:41.570Z,19.30
2023-05-19T16:28:08.550Z,19.30
2023-05-19T16:30:35.786Z,19.30
2023-05-19T16:33:03.046Z,19.60
2023-05-19T16:35:30.207Z,19.40
2023-05-19T16:37:57.222Z,19.20
2023-05-19T16:40:24.442Z,19.30
2023-05-19T16:42:52.875Z,19.40
2023-05-19T16:45:19.777Z,19.80
2023-05-19T16:47:46.795Z,19.70
2023-05-19T16:50:13.848Z,19.30
2023-05-19T16:52:40.887Z,19.20
2023-05-19T16:55:08.037Z,19.00
2023-05-19T16:57:34.971Z,19.00
2023-05-19T17:00:02.065Z,18.70
2023-05-19T17:02:29.105Z,18.60
2023-05-19T17:04:56.214Z,18.60
2023-05-19T17:07:23.401Z,18.50
2023-05-19T17:09:52.530Z,18.50
2023-05-19T17:12:20.916Z,18.20
2023-05-19T17:14:49.956Z,18.10
2023-05-19T17:17:17.147Z,18.00
2023-05-19T17:19:44.157Z,17.80
2023-05-19T17:22:11.342Z,17.80
2023-05-19T17:24:38.304Z,17.80
2023-05-19T17:27:05.333Z,17.70
2023-05-19T17:29:32.261Z,17.60
2023-05-19T17:31:59.305Z,17.60
2023-05-19T17:34:26.350Z,17.60
2023-05-19T17:36:53.278Z,17.90
2023-05-19T17:39:20.326Z,17.70
2023-05-19T17:41:47.350Z,17.60
2023-05-19T17:44:14.935Z,17.60
2023-05-19T17:46:42.048Z,17.70
2023-05-19T17:49:10.777Z,17.60
2023-05-19T17:51:37.937Z,17.50
2023-05-19T17:54:05.472Z,17.40
2023-05-19T17:56:33.509Z,17.40
2023-05-19T17:59:00.592Z,17.40
2023-05-19T18:01:27.737Z,17.30
2023-05-19T18:03:54.955Z,17.30
2023-05-19T18:06:24.168Z,17.40
2023-05-19T18:08:51.842Z,17.30
2023-05-19T18:11:19.045Z,17.20
2023-05-19T18:13:46.065Z,17.10
2023-05-19T18:16:13.413Z,17.10
2023-05-19T18:18:43.668Z,17.00
2023-05-19T18:21:17.728Z,17.00
2023-05-19T18:23:45.232Z,17.00
2023-05-19T18:26:15.499Z,16.80
2023-05-19T18:28:43.436Z,17.00
2023-05-19T18:31:15.759Z,17.00
2023-05-19T18:33:43.586Z,16.70
2023-05-19T18:36:10.534Z,16.50
2023-05-19T18:38:37.431Z,16.40
2023-05-19T18:41:06.527Z,16.20
2023-05-19T18:43:34.397Z,16.20
2023-05-19T18:46:01.351Z,16.00
2023-05-19T18:48:29.639Z,15.90
2023-05-19T18:50:57.341Z,15.80
2023-05-19T18:53:24.435Z,15.70
2023-05-19T18:55:51.382Z,15.60
2023-05-19T18:58:18.824Z,15.50
2023-05-19T19:00:45.858Z,15.20
2023-05-19T19:03:12.976Z,15.00
2023-05-19T19:05:40.163Z,14.90
2023-05-19T19:08:07.236Z,14.70
2023-05-19T19:10:39.060Z,14.50
2023-05-19T19:13:06.355Z,14.30
2023-05-19T19:15:33.256Z,14.30
2023-05-19T19:18:00.301Z,14.20
2023-05-19T19:20:27.278Z,14.20
2023-05-19T19:22:54.205Z,14.40
2023-05-19T19:25:23.255Z,14.40
2023-05-19T19:27:51.277Z,14.30
2023-05-19T19:30:18.296Z,14.20
2023-05-19T19:32:45.343Z,14.00
2023-05-19T19:35:12.329Z,13.70
2023-05-19T19:37:39.283Z,13.70
2023-05-19T19:40:06.804Z,13.80
2023-05-19T19:42:34.153Z,13.70
2023-05-19T19:45:01.221Z,13.70
2023-05-19T19:47:28.271Z,13.80
2023-05-19T19:49:56.007Z,13.90
2023-05-19T19:52:22.896Z,13.90
2023-05-19T19:54:50.148Z,14.10
2023-05-19T19:57:17.415Z,14.10
2023-05-19T19:59:44.487Z,14.20
2023-05-19T20:02:11.633Z,14.20
2023-05-19T20:04:38.772Z,14.30
2023-05-19T20:07:05.893Z,14.30
2023-05-19T20:09:32.844Z,14.30
2023-05-19T20:11:59.924Z,14.30
2023-05-19T20:14:27.005Z,14.20
2023-05-19T20:16:53.953Z,14.40
2023-05-19T20:19:21.169Z,14.40
2023-05-19T20:21:48.114Z,14.40
2023-05-19T20:24:15.065Z,14.30
2023-05-19T20:26:42.232Z,14.40
2023-05-19T20:29:09.237Z,14.40
2023-05-19T20:31:36.190Z,14.40
2023-05-19T20:34:03.159Z,14.40
2023-05-19T20:36:30.222Z,14.40
2023-05-19T20:38:57.172Z,14.40
2023-05-19T20:41:24.154Z,14.40
2023-05-19T20:43:51.255Z,14.50
2023-05-19T20:46:18.254Z,14.60
2023-05-19T20:48:45.152Z,14.70
2023-05-19T20:51:12.044Z,14.70
2023-05-19T20:53:39.059Z,14.70
2023-05-19T20:56:07.337Z,14.80
2023-05-19T20:58:34.299Z,14.80
2023-05-19T21:01:01.531Z,14.70
2023-05-19T21:03:28.664Z,14.80
2023-05-19T21:05:55.846Z,14.80
2023-05-19T21:08:23.193Z,14.80
2023-05-19T21:10:50.633Z,14.80
2023-05-19T21:13:18.128Z,14.90
2023-05-19T21:15:45.287Z,14.90
2023-05-19T21:18:12.393Z,14.80
2023-05-19T21:20:39.700Z,14.80
2023-05-19T21:23:06.648Z,14.80
2023-05-19T21:25:33.715Z,14.80
2023-05-19T21:28:01.120Z,14.80
2023-05-19T21:30:28.221Z,14.90
2023-05-19T21:32:55.167Z,14.90
2023-05-19T21:35:22.044Z,15.10
2023-05-19T21:37:49.044Z,15.10
2023-05-19T21:40:16.188Z,15.00
2023-05-19T21:42:43.154Z,14.90
2023-05-19T21:45:10.386Z,15.00
2023-05-19T21:47:37.316Z,14.90
2023-05-19T21:50:04.333Z,14.90
2023-05-19T21:52:31.506Z,14.90
2023-05-19T21:54:58.524Z,14.80
2023-05-19T21:57:25.523Z,14.80
2023-05-19T21:59:52.466Z,14.80
2023-05-19T22:02:19.338Z,14.80
2023-05-19T22:04:46.384Z,14.90
2023-05-19T22:07:13.389Z,14.90
2023-05-19T22:09:40.393Z,14.80
2023-05-19T22:12:07.654Z,14.70
2023-05-19T22:14:34.612Z,14.70
2023-05-19T22:17:01.514Z,14.60
2023-05-19T22:19:28.454Z,14.60
2023-05-19T22:22:01.805Z,14.50
2023-05-19T22:24:33.122Z,14.40
2023-05-19T22:27:00.050Z,14.20
2023-05-19T22:29:26.965Z,14.00
2023-05-19T22:31:53.873Z,13.90
2023-05-19T22:34:20.938Z,13.70
2023-05-19T22:36:47.951Z,13.70
2023-05-19T22:39:14.987Z,13.50
2023-05-19T22:41:42.123Z,13.40
2023-05-19T22:44:10.436Z,13.30
2023-05-19T22:46:37.451Z,13.40
2023-05-19T22:49:04.452Z,13.20
2023-05-19T22:51:32.110Z,13.10
2023-05-19T22:53:59.241Z,13.20
2023-05-19T22:56:26.201Z,13.10
2023-05-19T22:58:53.178Z,13.00
2023-05-19T23:01:20.138Z,12.90
2023-05-19T23:03:47.196Z,12.90
2023-05-19T23:06:14.165Z,12.90
2023-05-19T23:08:41.407Z,12.90
2023-05-19T23:11:08.649Z,12.90
2023-05-19T23:13:35.617Z,12.80
2023-05-19T23:16:02.737Z,12.80
2023-05-19T23:18:29.665Z,12.80
2023-05-19T23:20:56.624Z,12.80
2023-05-19T23:23:23.595Z,12.80
2023-05-19T23:25:50.552Z,12.70
2023-05-19T23:28:17.518Z,12.80
2023-05-19T23:30:44.386Z,12.90
2023-05-19T23:33:11.361Z,12.90
2023-05-19T23:35:39.629Z,12.80
2023-05-19T23:38:06.749Z,12.80
2023-05-19T23:40:33.686Z,12.90
2023-05-19T23:43:00.694Z,12.80
2023-05-19T23:45:27.581Z,12.80
2023-05-19T23:47:54.633Z,12.90
2023-05-19T23:50:21.767Z,12.90
2023-05-19T23:52:48.910Z,12.80
2023-05-19T23:55:16.088Z,13.00
2023-05-19T23:57:43.127Z,12.90
